createdAt,value
2022-09-05T00:02:03.226Z,20.50
2022-09-05T00:08:27.538Z,20.50
2022-09-05T00:15:17.646Z,20.20
2022-09-05T00:24:26.947Z,20.20
2022-09-05T00:28:25.651Z,19.90
2022-09-05T00:34:50.176Z,20.00
2022-09-05T00:41:02.595Z,20.00
2022-09-05T00:47:17.186Z,19.90
2022-09-05T00:53:25.837Z,19.90
2022-09-05T01:00:07.301Z,19.90
2022-09-05T01:06:26.044Z,19.70
2022-09-05T01:12:45.196Z,19.70
2022-09-05T01:19:25.125Z,19.50
2022-09-05T01:25:52.485Z,19.40
2022-09-05T01:32:06.033Z,19.40
2022-09-05T01:38:55.357Z,19.20
2022-09-05T01:45:19.465Z,19.00
2022-09-05T01:52:06.142Z,19.00
2022-09-05T01:58:43.587Z,19.10
2022-09-05T02:05:12.766Z,19.30
2022-09-05T02:11:16.407Z,19.30
2022-09-05T02:17:52.101Z,19.30
2022-09-05T02:24:31.606Z,19.30
2022-09-05T02:30:47.560Z,19.20
2022-09-05T02:37:06.318Z,19.10
2022-09-05T02:45:17.416Z,19.10
2022-09-05T02:51:42.351Z,19.10
2022-09-05T02:57:41.361Z,18.90
2022-09-05T03:03:40.902Z,18.80
2022-09-05T03:10:03.177Z,18.80
2022-09-05T03:16:10.822Z,18.80
2022-09-05T03:22:50.182Z,18.80
2022-09-05T03:29:16.556Z,18.70
2022-09-05T03:35:55.601Z,18.60
2022-09-05T03:42:32.345Z,18.50
2022-09-05T03:48:51.261Z,18.50
2022-09-05T03:57:24.630Z,18.40
2022-09-05T04:02:31.059Z,18.40
2022-09-05T04:08:32.198Z,18.50
2022-09-05T04:14:41.739Z,18.40
2022-09-05T04:20:49.949Z,18.40
2022-09-05T04:27:16.583Z,18.30
2022-09-05T04:33:36.304Z,18.30
2022-09-05T04:39:39.147Z,18.30
2022-09-05T04:45:49.787Z,18.40
2022-09-05T04:52:03.408Z,18.40
2022-09-05T04:58:12.322Z,18.30
2022-09-05T05:06:17.341Z,18.20
2022-09-05T05:14:35.392Z,18.10
2022-09-05T05:18:08.955Z,18.10
2022-09-05T05:24:08.775Z,18.10
2022-09-05T05:30:11.980Z,18.20
2022-09-05T05:36:35.573Z,18.20
2022-09-05T05:42:40.454Z,18.30
2022-09-05T05:48:56.969Z,18.40
2022-09-05T05:55:52.487Z,18.50
2022-09-05T06:02:18.617Z,18.60
2022-09-05T06:14:47.950Z,18.70
2022-09-05T06:15:45.001Z,18.70
2022-09-05T06:22:13.257Z,18.80
2022-09-05T06:28:38.724Z,18.90
2022-09-05T06:35:22.365Z,19.00
2022-09-05T06:41:52.158Z,19.00
2022-09-05T06:48:24.865Z,19.20
2022-09-05T06:55:27.084Z,19.20
2022-09-05T07:01:59.542Z,19.30
2022-09-05T07:08:18.440Z,19.30
2022-09-05T07:15:08.475Z,19.30
2022-09-05T07:21:38.781Z,19.40
2022-09-05T07:28:27.054Z,19.70
2022-09-05T07:34:22.674Z,19.90
2022-09-05T07:40:26.976Z,20.30
2022-09-05T07:46:33.610Z,20.70
2022-09-05T07:56:50.902Z,20.80
2022-09-05T07:59:04.855Z,20.90
2022-09-05T08:05:07.999Z,21.40
2022-09-05T08:11:25.510Z,21.70
2022-09-05T08:17:30.391Z,22.00
2022-09-05T08:23:55.072Z,21.80
2022-09-05T08:30:26.920Z,21.90
2022-09-05T08:36:41.297Z,21.90
2022-09-05T08:43:00.416Z,22.10
2022-09-05T08:49:48.923Z,22.20
2022-09-05T08:56:01.867Z,22.40
2022-09-05T09:02:47.378Z,22.60
2022-09-05T09:09:13.674Z,23.00
2022-09-05T09:15:37.992Z,23.30
2022-09-05T09:21:56.498Z,23.30
2022-09-05T09:28:46.753Z,23.50
2022-09-05T09:35:01.020Z,23.70
2022-09-05T09:41:37.130Z,23.90
2022-09-05T09:48:14.087Z,24.30
2022-09-05T09:54:41.476Z,24.90
2022-09-05T10:00:51.279Z,25.00
2022-09-05T10:10:45.889Z,25.20
2022-09-05T10:14:47.589Z,25.50
2022-09-05T10:21:15.645Z,26.00
2022-09-05T10:27:27.978Z,26.20
2022-09-05T10:35:17.166Z,26.40
2022-09-05T10:40:05.479Z,27.00
2022-09-05T10:46:50.279Z,26.80
2022-09-05T10:53:20.648Z,26.80
2022-09-05T11:02:20.510Z,27.40
2022-09-05T11:05:58.288Z,27.60
2022-09-05T11:12:12.103Z,27.50
2022-09-05T11:18:55.016Z,27.70
2022-09-05T11:25:02.368Z,27.50
2022-09-05T11:31:11.905Z,26.80
2022-09-05T11:40:10.064Z,26.60
2022-09-05T11:44:29.066Z,26.60
2022-09-05T11:51:04.604Z,27.60
2022-09-05T11:57:32.205Z,28.10
2022-09-05T12:04:17.098Z,27.60
2022-09-05T12:10:46.839Z,27.20
2022-09-05T12:17:10.358Z,27.50
2022-09-05T12:24:49.724Z,28.10
2022-09-05T12:30:47.633Z,28.20
2022-09-05T12:40:38.377Z,28.80
2022-09-05T12:44:00.727Z,29.40
2022-09-05T12:50:03.369Z,29.90
2022-09-05T12:58:34.634Z,29.90
2022-09-05T13:03:28.049Z,29.80
2022-09-05T13:12:57.743Z,29.60
2022-09-05T13:22:33.826Z,30.20
2022-09-05T13:28:52.868Z,29.90
2022-09-05T13:38:04.148Z,29.70
2022-09-05T13:41:59.423Z,30.00
2022-09-05T13:48:27.611Z,30.10
2022-09-05T13:54:56.754Z,30.10
2022-09-05T14:01:09.988Z,30.20
2022-09-05T14:07:47.327Z,29.70
2022-09-05T14:14:04.828Z,29.30
2022-09-05T14:20:31.805Z,29.00
2022-09-05T14:26:34.816Z,29.10
2022-09-05T14:37:34.808Z,29.40
2022-09-05T14:40:29.249Z,29.20
2022-09-05T14:47:10.000Z,28.90
2022-09-05T15:02:58.668Z,29.80
2022-09-05T15:06:33.002Z,29.60
2022-09-05T15:12:47.612Z,29.40
2022-09-05T15:18:53.331Z,29.60
2022-09-05T15:25:21.661Z,29.50
2022-09-05T15:31:25.610Z,29.30
2022-09-05T15:37:40.453Z,28.80
2022-09-05T15:44:09.319Z,28.30
2022-09-05T15:50:21.891Z,28.00
2022-09-05T15:56:26.245Z,27.90
2022-09-05T16:02:31.896Z,27.80
2022-09-05T16:10:50.978Z,27.20
2022-09-05T16:16:46.087Z,26.90
2022-09-05T16:23:33.825Z,26.60
2022-09-05T16:28:03.111Z,26.40
2022-09-05T16:34:11.692Z,26.40
2022-09-05T16:40:27.607Z,26.30
2022-09-05T16:46:43.345Z,26.20
2022-09-05T16:52:53.920Z,26.10
2022-09-05T16:59:02.322Z,26.00
2022-09-05T17:05:11.367Z,26.10
2022-09-05T17:11:29.376Z,26.10
2022-09-05T17:18:19.666Z,26.00
2022-09-05T17:29:17.569Z,25.90
2022-09-05T17:31:47.336Z,25.70
2022-09-05T17:37:20.098Z,25.50
2022-09-05T17:43:29.423Z,25.40
2022-09-05T17:49:43.312Z,25.30
2022-09-05T17:55:45.072Z,25.20
2022-09-05T18:02:02.292Z,25.00
2022-09-05T18:08:04.237Z,25.00
2022-09-05T18:14:29.130Z,24.90
2022-09-05T18:21:09.345Z,24.80
2022-09-05T18:34:13.711Z,24.60
2022-09-05T18:40:43.803Z,24.50
2022-09-05T18:46:52.696Z,24.40
2022-09-05T18:53:09.379Z,24.30
2022-09-05T18:59:23.976Z,24.30
2022-09-05T19:05:38.335Z,24.30
2022-09-05T19:12:01.644Z,24.10
2022-09-05T19:18:26.778Z,24.00
2022-09-05T19:24:43.174Z,23.90
2022-09-05T19:36:51.165Z,23.90
2022-09-05T19:37:51.853Z,23.70
2022-09-05T19:47:50.277Z,23.60
2022-09-05T19:50:28.477Z,23.50
2022-09-05T19:56:38.182Z,23.40
2022-09-05T20:02:44.526Z,23.40
2022-09-05T20:08:48.199Z,23.30
2022-09-05T20:14:50.120Z,23.20
2022-09-05T20:20:53.509Z,23.10
2022-09-05T20:26:56.014Z,23.00
2022-09-05T20:33:11.783Z,22.90
2022-09-05T20:43:18.014Z,22.90
2022-09-05T20:46:02.922Z,22.80
2022-09-05T20:54:27.428Z,22.70
2022-09-05T20:59:21.249Z,22.70
2022-09-05T21:05:30.823Z,22.60
2022-09-05T21:11:33.077Z,22.50
2022-09-05T21:17:36.056Z,22.40
2022-09-05T21:23:38.678Z,22.40
2022-09-05T21:29:40.499Z,22.30
2022-09-05T21:35:46.527Z,22.20
2022-09-05T21:42:02.110Z,22.20
2022-09-05T21:48:15.078Z,22.20
2022-09-05T21:56:41.555Z,22.10
2022-09-05T22:00:42.550Z,22.10
2022-09-05T22:06:48.422Z,22.10
2022-09-05T22:12:50.543Z,21.90
2022-09-05T22:18:53.348Z,22.00
2022-09-05T22:25:09.445Z,21.90
2022-09-05T22:31:11.587Z,21.90
2022-09-05T22:37:16.263Z,21.80
2022-09-05T22:43:18.048Z,21.70
2022-09-05T22:49:19.825Z,21.60
2022-09-05T22:55:21.560Z,21.60
2022-09-05T23:01:23.481Z,21.50
2022-09-05T23:07:25.259Z,21.50
2022-09-05T23:13:27.005Z,21.50
2022-09-05T23:19:30.903Z,21.30
2022-09-05T23:25:33.616Z,21.30
2022-09-05T23:31:35.393Z,21.30
2022-09-05T23:37:37.171Z,21.30
2022-09-05T23:43:38.947Z,21.30
2022-09-05T23:49:40.735Z,21.40
2022-09-05T23:55:43.373Z,21.20
